sensor_id;sensor_type;location;lat;lon;timestamp;P1;durP1;ratioP1;P2;durP2;ratioP2
20022;SDS011;10172;42.054;24.546;2023-08-30T00:00:54;6.10;;;4.20;;
20022;SDS011;10172;42.054;24.546;2023-08-30T00:03:19;5.57;;;3.80;;
20022;SDS011;10172;42.054;24.546;2023-08-30T00:05:45;6.47;;;4.25;;
20022;SDS011;10172;42.054;24.546;2023-08-30T00:08:10;7.88;;;3.72;;
20022;SDS011;10172;42.054;24.546;2023-08-30T00:10:38;9.75;;;4.90;;
20022;SDS011;10172;42.054;24.546;2023-08-30T00:13:04;9.63;;;4.80;;
20022;SDS011;10172;42.054;24.546;2023-08-30T00:15:30;8.13;;;4.85;;
20022;SDS011;10172;42.054;24.546;2023-08-30T00:17:55;8.30;;;3.95;;
20022;SDS011;10172;42.054;24.546;2023-08-30T00:20:21;6.53;;;3.97;;
20022;SDS011;10172;42.054;24.546;2023-08-30T00:22:47;6.30;;;3.70;;
20022;SDS011;10172;42.054;24.546;2023-08-30T00:25:16;10.68;;;4.50;;
20022;SDS011;10172;42.054;24.546;2023-08-30T00:27:41;9.30;;;3.90;;
20022;SDS011;10172;42.054;24.546;2023-08-30T00:30:07;5.75;;;3.70;;
20022;SDS011;10172;42.054;24.546;2023-08-30T00:32:34;6.63;;;3.80;;
20022;SDS011;10172;42.054;24.546;2023-08-30T00:35:00;5.20;;;3.15;;
20022;SDS011;10172;42.054;24.546;2023-08-30T00:37:25;8.45;;;3.30;;
20022;SDS011;10172;42.054;24.546;2023-08-30T00:39:51;7.85;;;4.43;;
20022;SDS011;10172;42.054;24.546;2023-08-30T00:42:16;7.53;;;3.67;;
20022;SDS011;10172;42.054;24.546;2023-08-30T00:44:42;6.15;;;3.90;;
20022;SDS011;10172;42.054;24.546;2023-08-30T00:47:07;7.55;;;3.75;;
20022;SDS011;10172;42.054;24.546;2023-08-30T00:49:33;6.53;;;4.03;;
20022;SDS011;10172;42.054;24.546;2023-08-30T00:52:00;7.75;;;3.63;;
20022;SDS011;10172;42.054;24.546;2023-08-30T00:54:27;5.03;;;3.38;;
20022;SDS011;10172;42.054;24.546;2023-08-30T00:56:54;7.25;;;3.72;;
20022;SDS011;10172;42.054;24.546;2023-08-30T00:59:19;5.28;;;3.28;;
20022;SDS011;10172;42.054;24.546;2023-08-30T01:01:45;8.00;;;3.25;;
20022;SDS011;10172;42.054;24.546;2023-08-30T01:04:11;6.38;;;3.83;;
20022;SDS011;10172;42.054;24.546;2023-08-30T01:06:36;5.30;;;3.60;;
20022;SDS011;10172;42.054;24.546;2023-08-30T01:09:02;4.57;;;3.00;;
20022;SDS011;10172;42.054;24.546;2023-08-30T01:14:17;6.68;;;3.25;;
20022;SDS011;10172;42.054;24.546;2023-08-30T01:16:45;5.55;;;3.25;;
20022;SDS011;10172;42.054;24.546;2023-08-30T01:28:44;6.32;;;3.50;;
20022;SDS011;10172;42.054;24.546;2023-08-30T01:31:11;6.10;;;3.50;;
20022;SDS011;10172;42.054;24.546;2023-08-30T01:33:38;6.03;;;3.17;;
20022;SDS011;10172;42.054;24.546;2023-08-30T01:36:05;3.50;;;2.83;;
20022;SDS011;10172;42.054;24.546;2023-08-30T01:38:31;5.53;;;3.42;;
20022;SDS011;10172;42.054;24.546;2023-08-30T01:40:59;5.00;;;3.20;;
20022;SDS011;10172;42.054;24.546;2023-08-30T01:43:28;5.65;;;3.10;;
20022;SDS011;10172;42.054;24.546;2023-08-30T01:45:55;5.55;;;3.40;;
20022;SDS011;10172;42.054;24.546;2023-08-30T01:48:22;5.63;;;3.38;;
20022;SDS011;10172;42.054;24.546;2023-08-30T01:50:49;6.28;;;3.50;;
20022;SDS011;10172;42.054;24.546;2023-08-30T01:53:15;8.52;;;3.33;;
20022;SDS011;10172;42.054;24.546;2023-08-30T01:55:42;6.35;;;3.67;;
20022;SDS011;10172;42.054;24.546;2023-08-30T01:58:08;6.70;;;3.47;;
20022;SDS011;10172;42.054;24.546;2023-08-30T02:00:35;7.13;;;3.92;;
20022;SDS011;10172;42.054;24.546;2023-08-30T02:03:06;5.95;;;4.07;;
20022;SDS011;10172;42.054;24.546;2023-08-30T02:05:37;6.28;;;3.35;;
20022;SDS011;10172;42.054;24.546;2023-08-30T02:08:15;6.35;;;3.65;;
20022;SDS011;10172;42.054;24.546;2023-08-30T02:10:44;7.55;;;3.85;;
20022;SDS011;10172;42.054;24.546;2023-08-30T02:13:16;8.52;;;3.50;;
20022;SDS011;10172;42.054;24.546;2023-08-30T02:15:46;8.65;;;3.33;;
20022;SDS011;10172;42.054;24.546;2023-08-30T02:18:13;6.65;;;3.63;;
20022;SDS011;10172;42.054;24.546;2023-08-30T02:20:39;9.52;;;3.70;;
20022;SDS011;10172;42.054;24.546;2023-08-30T02:23:05;5.43;;;3.13;;
20022;SDS011;10172;42.054;24.546;2023-08-30T02:25:30;6.13;;;3.67;;
20022;SDS011;10172;42.054;24.546;2023-08-30T02:27:56;5.15;;;3.20;;
20022;SDS011;10172;42.054;24.546;2023-08-30T02:30:21;7.80;;;3.85;;
20022;SDS011;10172;42.054;24.546;2023-08-30T02:32:47;7.65;;;3.80;;
20022;SDS011;10172;42.054;24.546;2023-08-30T02:35:12;5.82;;;3.15;;
20022;SDS011;10172;42.054;24.546;2023-08-30T02:37:37;5.47;;;3.55;;
20022;SDS011;10172;42.054;24.546;2023-08-30T02:40:05;7.13;;;3.22;;
20022;SDS011;10172;42.054;24.546;2023-08-30T02:42:31;5.57;;;3.53;;
20022;SDS011;10172;42.054;24.546;2023-08-30T02:44:56;5.50;;;3.17;;
20022;SDS011;10172;42.054;24.546;2023-08-30T02:47:22;5.43;;;2.92;;
20022;SDS011;10172;42.054;24.546;2023-08-30T02:49:47;7.32;;;3.30;;
20022;SDS011;10172;42.054;24.546;2023-08-30T02:52:13;3.88;;;2.80;;
20022;SDS011;10172;42.054;24.546;2023-08-30T02:54:38;5.55;;;3.60;;
20022;SDS011;10172;42.054;24.546;2023-08-30T02:57:04;6.57;;;3.75;;
20022;SDS011;10172;42.054;24.546;2023-08-30T02:59:29;4.93;;;3.45;;
20022;SDS011;10172;42.054;24.546;2023-08-30T03:01:55;8.20;;;3.75;;
20022;SDS011;10172;42.054;24.546;2023-08-30T03:04:20;6.35;;;3.78;;
20022;SDS011;10172;42.054;24.546;2023-08-30T03:06:46;6.68;;;3.92;;
20022;SDS011;10172;42.054;24.546;2023-08-30T03:09:11;5.80;;;3.15;;
20022;SDS011;10172;42.054;24.546;2023-08-30T03:11:37;5.55;;;3.15;;
20022;SDS011;10172;42.054;24.546;2023-08-30T03:14:02;8.73;;;3.90;;
20022;SDS011;10172;42.054;24.546;2023-08-30T03:16:28;7.22;;;3.63;;
20022;SDS011;10172;42.054;24.546;2023-08-30T03:18:54;6.43;;;3.70;;
20022;SDS011;10172;42.054;24.546;2023-08-30T03:21:19;6.22;;;3.63;;
20022;SDS011;10172;42.054;24.546;2023-08-30T03:23:45;7.68;;;3.42;;
20022;SDS011;10172;42.054;24.546;2023-08-30T03:26:10;9.10;;;3.65;;
20022;SDS011;10172;42.054;24.546;2023-08-30T03:28:37;5.47;;;3.65;;
20022;SDS011;10172;42.054;24.546;2023-08-30T03:31:13;6.03;;;3.47;;
20022;SDS011;10172;42.054;24.546;2023-08-30T03:33:42;7.40;;;3.75;;
20022;SDS011;10172;42.054;24.546;2023-08-30T03:36:12;6.22;;;3.65;;
20022;SDS011;10172;42.054;24.546;2023-08-30T03:38:39;4.50;;;2.95;;
20022;SDS011;10172;42.054;24.546;2023-08-30T03:41:05;6.43;;;2.80;;
20022;SDS011;10172;42.054;24.546;2023-08-30T03:43:32;7.32;;;3.38;;
20022;SDS011;10172;42.054;24.546;2023-08-30T03:45:58;7.55;;;3.70;;
20022;SDS011;10172;42.054;24.546;2023-08-30T03:48:25;7.78;;;4.30;;
20022;SDS011;10172;42.054;24.546;2023-08-30T03:50:50;7.68;;;3.35;;
20022;SDS011;10172;42.054;24.546;2023-08-30T03:53:16;6.45;;;3.40;;
20022;SDS011;10172;42.054;24.546;2023-08-30T03:55:41;5.47;;;3.53;;
20022;SDS011;10172;42.054;24.546;2023-08-30T03:58:07;6.63;;;3.33;;
20022;SDS011;10172;42.054;24.546;2023-08-30T04:00:35;5.40;;;3.60;;
20022;SDS011;10172;42.054;24.546;2023-08-30T04:03:01;7.13;;;3.90;;
20022;SDS011;10172;42.054;24.546;2023-08-30T04:05:31;7.07;;;3.47;;
20022;SDS011;10172;42.054;24.546;2023-08-30T04:07:58;6.57;;;3.30;;
20022;SDS011;10172;42.054;24.546;2023-08-30T04:10:23;7.75;;;3.42;;
20022;SDS011;10172;42.054;24.546;2023-08-30T04:12:49;5.75;;;3.90;;
20022;SDS011;10172;42.054;24.546;2023-08-30T04:15:14;7.38;;;3.92;;
20022;SDS011;10172;42.054;24.546;2023-08-30T04:17:40;5.47;;;3.10;;
20022;SDS011;10172;42.054;24.546;2023-08-30T04:20:05;7.78;;;3.15;;
20022;SDS011;10172;42.054;24.546;2023-08-30T04:22:31;6.97;;;3.75;;
20022;SDS011;10172;42.054;24.546;2023-08-30T04:24:59;8.15;;;3.33;;
20022;SDS011;10172;42.054;24.546;2023-08-30T04:27:25;8.13;;;3.50;;
20022;SDS011;10172;42.054;24.546;2023-08-30T04:29:51;6.40;;;3.38;;
20022;SDS011;10172;42.054;24.546;2023-08-30T04:32:17;6.60;;;3.60;;
20022;SDS011;10172;42.054;24.546;2023-08-30T04:34:43;6.47;;;3.50;;
20022;SDS011;10172;42.054;24.546;2023-08-30T04:37:08;5.72;;;3.40;;
20022;SDS011;10172;42.054;24.546;2023-08-30T04:39:34;4.57;;;2.58;;
20022;SDS011;10172;42.054;24.546;2023-08-30T04:41:59;4.28;;;3.33;;
20022;SDS011;10172;42.054;24.546;2023-08-30T04:44:25;6.13;;;3.53;;
20022;SDS011;10172;42.054;24.546;2023-08-30T04:46:53;8.15;;;3.47;;
20022;SDS011;10172;42.054;24.546;2023-08-30T04:49:19;5.55;;;3.33;;
20022;SDS011;10172;42.054;24.546;2023-08-30T04:51:44;7.85;;;3.42;;
20022;SDS011;10172;42.054;24.546;2023-08-30T04:54:10;6.90;;;3.53;;
20022;SDS011;10172;42.054;24.546;2023-08-30T04:56:35;6.55;;;3.45;;
20022;SDS011;10172;42.054;24.546;2023-08-30T04:59:01;6.53;;;3.05;;
20022;SDS011;10172;42.054;24.546;2023-08-30T05:01:29;5.90;;;3.15;;
20022;SDS011;10172;42.054;24.546;2023-08-30T05:03:55;5.68;;;3.08;;
20022;SDS011;10172;42.054;24.546;2023-08-30T05:06:21;5.10;;;3.25;;
20022;SDS011;10172;42.054;24.546;2023-08-30T05:08:46;5.00;;;3.05;;
20022;SDS011;10172;42.054;24.546;2023-08-30T05:11:12;4.88;;;3.22;;
20022;SDS011;10172;42.054;24.546;2023-08-30T05:13:37;5.00;;;3.05;;
20022;SDS011;10172;42.054;24.546;2023-08-30T05:16:03;10.30;;;3.92;;
20022;SDS011;10172;42.054;24.546;2023-08-30T05:18:28;5.90;;;3.22;;
20022;SDS011;10172;42.054;24.546;2023-08-30T05:20:54;6.97;;;3.78;;
20022;SDS011;10172;42.054;24.546;2023-08-30T05:23:19;6.72;;;4.00;;
20022;SDS011;10172;42.054;24.546;2023-08-30T05:25:45;5.32;;;3.55;;
20022;SDS011;10172;42.054;24.546;2023-08-30T05:28:11;5.43;;;3.58;;
20022;SDS011;10172;42.054;24.546;2023-08-30T05:30:38;7.35;;;3.38;;
20022;SDS011;10172;42.054;24.546;2023-08-30T05:33:06;5.40;;;3.58;;
20022;SDS011;10172;42.054;24.546;2023-08-30T05:35:31;6.93;;;3.38;;
20022;SDS011;10172;42.054;24.546;2023-08-30T05:37:57;5.47;;;3.50;;
20022;SDS011;10172;42.054;24.546;2023-08-30T05:40:22;5.05;;;3.08;;
20022;SDS011;10172;42.054;24.546;2023-08-30T05:42:48;9.82;;;3.75;;
20022;SDS011;10172;42.054;24.546;2023-08-30T05:45:15;5.25;;;3.67;;
20022;SDS011;10172;42.054;24.546;2023-08-30T05:47:40;5.93;;;4.10;;
20022;SDS011;10172;42.054;24.546;2023-08-30T05:50:06;5.93;;;3.28;;
20022;SDS011;10172;42.054;24.546;2023-08-30T05:52:32;6.05;;;3.45;;
20022;SDS011;10172;42.054;24.546;2023-08-30T05:54:58;6.18;;;3.58;;
20022;SDS011;10172;42.054;24.546;2023-08-30T05:57:23;6.93;;;3.72;;
20022;SDS011;10172;42.054;24.546;2023-08-30T05:59:50;6.00;;;3.45;;
20022;SDS011;10172;42.054;24.546;2023-08-30T06:02:16;7.15;;;3.92;;
20022;SDS011;10172;42.054;24.546;2023-08-30T06:04:41;7.50;;;3.95;;
20022;SDS011;10172;42.054;24.546;2023-08-30T06:07:06;5.85;;;3.35;;
20022;SDS011;10172;42.054;24.546;2023-08-30T06:09:33;6.85;;;3.75;;
20022;SDS011;10172;42.054;24.546;2023-08-30T06:11:58;7.07;;;3.63;;
20022;SDS011;10172;42.054;24.546;2023-08-30T06:14:24;9.55;;;3.30;;
20022;SDS011;10172;42.054;24.546;2023-08-30T06:16:49;6.05;;;3.60;;
20022;SDS011;10172;42.054;24.546;2023-08-30T06:19:15;8.07;;;3.67;;
20022;SDS011;10172;42.054;24.546;2023-08-30T06:21:40;6.63;;;4.22;;
20022;SDS011;10172;42.054;24.546;2023-08-30T06:24:06;6.38;;;3.40;;
20022;SDS011;10172;42.054;24.546;2023-08-30T06:26:31;6.22;;;3.58;;
20022;SDS011;10172;42.054;24.546;2023-08-30T06:28:57;4.57;;;3.30;;
20022;SDS011;10172;42.054;24.546;2023-08-30T06:31:23;6.28;;;3.47;;
20022;SDS011;10172;42.054;24.546;2023-08-30T06:33:49;6.15;;;3.63;;
20022;SDS011;10172;42.054;24.546;2023-08-30T06:36:15;5.00;;;3.35;;
20022;SDS011;10172;42.054;24.546;2023-08-30T06:38:42;9.32;;;3.60;;
20022;SDS011;10172;42.054;24.546;2023-08-30T06:41:08;7.85;;;3.95;;
20022;SDS011;10172;42.054;24.546;2023-08-30T06:43:33;6.10;;;3.50;;
20022;SDS011;10172;42.054;24.546;2023-08-30T06:45:59;9.45;;;3.53;;
20022;SDS011;10172;42.054;24.546;2023-08-30T06:48:24;6.60;;;4.07;;
20022;SDS011;10172;42.054;24.546;2023-08-30T06:50:50;7.13;;;3.92;;
20022;SDS011;10172;42.054;24.546;2023-08-30T06:53:15;6.15;;;3.55;;
20022;SDS011;10172;42.054;24.546;2023-08-30T06:55:41;5.70;;;3.60;;
20022;SDS011;10172;42.054;24.546;2023-08-30T06:58:06;6.95;;;3.95;;
20022;SDS011;10172;42.054;24.546;2023-08-30T07:00:32;5.15;;;3.45;;
20022;SDS011;10172;42.054;24.546;2023-08-30T07:02:57;5.50;;;3.83;;
20022;SDS011;10172;42.054;24.546;2023-08-30T07:05:23;9.35;;;4.07;;
20022;SDS011;10172;42.054;24.546;2023-08-30T07:07:48;7.07;;;3.10;;
20022;SDS011;10172;42.054;24.546;2023-08-30T07:10:14;5.80;;;3.63;;
20022;SDS011;10172;42.054;24.546;2023-08-30T07:12:39;6.30;;;3.35;;
20022;SDS011;10172;42.054;24.546;2023-08-30T07:15:05;6.72;;;3.85;;
20022;SDS011;10172;42.054;24.546;2023-08-30T07:17:31;8.77;;;4.38;;
20022;SDS011;10172;42.054;24.546;2023-08-30T07:19:56;6.97;;;3.67;;
20022;SDS011;10172;42.054;24.546;2023-08-30T07:22:22;7.43;;;3.20;;
20022;SDS011;10172;42.054;24.546;2023-08-30T07:24:47;8.27;;;3.63;;
20022;SDS011;10172;42.054;24.546;2023-08-30T07:27:13;10.70;;;3.55;;
20022;SDS011;10172;42.054;24.546;2023-08-30T07:29:38;7.50;;;4.43;;
20022;SDS011;10172;42.054;24.546;2023-08-30T07:32:07;6.47;;;3.40;;
20022;SDS011;10172;42.054;24.546;2023-08-30T07:34:33;6.38;;;3.50;;
20022;SDS011;10172;42.054;24.546;2023-08-30T07:36:58;8.30;;;3.90;;
20022;SDS011;10172;42.054;24.546;2023-08-30T07:39:24;6.20;;;3.97;;
20022;SDS011;10172;42.054;24.546;2023-08-30T07:41:49;7.28;;;3.88;;
20022;SDS011;10172;42.054;24.546;2023-08-30T07:44:15;5.50;;;3.53;;
20022;SDS011;10172;42.054;24.546;2023-08-30T07:46:41;6.10;;;3.35;;
20022;SDS011;10172;42.054;24.546;2023-08-30T07:49:07;5.65;;;3.35;;
20022;SDS011;10172;42.054;24.546;2023-08-30T07:51:32;4.95;;;3.08;;
20022;SDS011;10172;42.054;24.546;2023-08-30T07:53:58;7.22;;;3.40;;
20022;SDS011;10172;42.054;24.546;2023-08-30T07:56:23;6.25;;;3.75;;
20022;SDS011;10172;42.054;24.546;2023-08-30T07:58:48;6.13;;;3.38;;
20022;SDS011;10172;42.054;24.546;2023-08-30T08:01:14;4.95;;;3.22;;
20022;SDS011;10172;42.054;24.546;2023-08-30T08:03:39;6.15;;;3.88;;
20022;SDS011;10172;42.054;24.546;2023-08-30T08:06:08;6.43;;;3.78;;
20022;SDS011;10172;42.054;24.546;2023-08-30T08:08:33;7.85;;;3.08;;
20022;SDS011;10172;42.054;24.546;2023-08-30T08:10:59;6.72;;;3.45;;
20022;SDS011;10172;42.054;24.546;2023-08-30T08:13:25;5.97;;;3.70;;
20022;SDS011;10172;42.054;24.546;2023-08-30T08:15:50;5.47;;;3.00;;
20022;SDS011;10172;42.054;24.546;2023-08-30T08:18:16;5.57;;;3.42;;
20022;SDS011;10172;42.054;24.546;2023-08-30T08:20:42;7.72;;;3.70;;
20022;SDS011;10172;42.054;24.546;2023-08-30T08:23:08;5.03;;;3.30;;
20022;SDS011;10172;42.054;24.546;2023-08-30T08:25:33;5.20;;;3.53;;
20022;SDS011;10172;42.054;24.546;2023-08-30T08:27:59;6.43;;;3.67;;
20022;SDS011;10172;42.054;24.546;2023-08-30T08:30:25;5.65;;;3.58;;
20022;SDS011;10172;42.054;24.546;2023-08-30T08:32:50;5.55;;;3.50;;
20022;SDS011;10172;42.054;24.546;2023-08-30T08:35:16;5.10;;;3.20;;
20022;SDS011;10172;42.054;24.546;2023-08-30T08:37:41;6.55;;;3.35;;
20022;SDS011;10172;42.054;24.546;2023-08-30T08:40:07;10.18;;;3.83;;
20022;SDS011;10172;42.054;24.546;2023-08-30T08:42:35;7.95;;;4.40;;
20022;SDS011;10172;42.054;24.546;2023-08-30T08:45:02;6.68;;;3.38;;
20022;SDS011;10172;42.054;24.546;2023-08-30T08:47:28;7.38;;;3.72;;
20022;SDS011;10172;42.054;24.546;2023-08-30T08:49:55;7.63;;;3.08;;
20022;SDS011;10172;42.054;24.546;2023-08-30T08:52:21;7.72;;;3.88;;
20022;SDS011;10172;42.054;24.546;2023-08-30T08:54:46;10.88;;;5.10;;
20022;SDS011;10172;42.054;24.546;2023-08-30T08:57:12;7.40;;;4.03;;
20022;SDS011;10172;42.054;24.546;2023-08-30T08:59:38;5.88;;;4.00;;
20022;SDS011;10172;42.054;24.546;2023-08-30T09:02:04;7.63;;;3.70;;
20022;SDS011;10172;42.054;24.546;2023-08-30T09:04:31;7.07;;;3.75;;
20022;SDS011;10172;42.054;24.546;2023-08-30T09:06:58;8.48;;;4.18;;
20022;SDS011;10172;42.054;24.546;2023-08-30T09:09:25;5.70;;;3.47;;
20022;SDS011;10172;42.054;24.546;2023-08-30T09:11:50;8.35;;;3.80;;
20022;SDS011;10172;42.054;24.546;2023-08-30T09:14:16;7.97;;;3.90;;
20022;SDS011;10172;42.054;24.546;2023-08-30T09:16:42;5.20;;;3.67;;
20022;SDS011;10172;42.054;24.546;2023-08-30T09:19:08;8.70;;;4.18;;
20022;SDS011;10172;42.054;24.546;2023-08-30T09:21:35;6.22;;;3.67;;
20022;SDS011;10172;42.054;24.546;2023-08-30T09:24:01;8.45;;;3.90;;
20022;SDS011;10172;42.054;24.546;2023-08-30T09:26:31;7.53;;;3.33;;
20022;SDS011;10172;42.054;24.546;2023-08-30T09:29:05;6.03;;;3.70;;
20022;SDS011;10172;42.054;24.546;2023-08-30T09:31:35;7.45;;;3.75;;
20022;SDS011;10172;42.054;24.546;2023-08-30T09:34:02;5.63;;;3.53;;
20022;SDS011;10172;42.054;24.546;2023-08-30T09:36:38;7.18;;;3.53;;
20022;SDS011;10172;42.054;24.546;2023-08-30T09:39:05;6.13;;;3.55;;
20022;SDS011;10172;42.054;24.546;2023-08-30T09:41:35;5.10;;;2.95;;
20022;SDS011;10172;42.054;24.546;2023-08-30T09:44:08;5.38;;;3.75;;
20022;SDS011;10172;42.054;24.546;2023-08-30T09:46:42;6.28;;;3.63;;
20022;SDS011;10172;42.054;24.546;2023-08-30T09:49:09;5.70;;;3.67;;
20022;SDS011;10172;42.054;24.546;2023-08-30T09:51:35;6.57;;;3.72;;
20022;SDS011;10172;42.054;24.546;2023-08-30T09:54:03;5.00;;;3.30;;
20022;SDS011;10172;42.054;24.546;2023-08-30T09:56:30;6.00;;;3.78;;
20022;SDS011;10172;42.054;24.546;2023-08-30T09:58:58;5.05;;;3.60;;
20022;SDS011;10172;42.054;24.546;2023-08-30T10:01:27;6.38;;;3.92;;
20022;SDS011;10172;42.054;24.546;2023-08-30T10:03:54;8.80;;;3.78;;
20022;SDS011;10172;42.054;24.546;2023-08-30T10:06:22;5.38;;;3.28;;
20022;SDS011;10172;42.054;24.546;2023-08-30T10:08:49;5.38;;;3.60;;
20022;SDS011;10172;42.054;24.546;2023-08-30T10:11:18;4.82;;;3.55;;
20022;SDS011;10172;42.054;24.546;2023-08-30T10:13:45;4.15;;;3.22;;
20022;SDS011;10172;42.054;24.546;2023-08-30T10:16:19;4.82;;;3.28;;
20022;SDS011;10172;42.054;24.546;2023-08-30T10:18:47;8.32;;;3.67;;
20022;SDS011;10172;42.054;24.546;2023-08-30T10:21:18;6.32;;;3.60;;
20022;SDS011;10172;42.054;24.546;2023-08-30T10:23:44;5.63;;;3.67;;
20022;SDS011;10172;42.054;24.546;2023-08-30T10:26:13;7.60;;;3.80;;
20022;SDS011;10172;42.054;24.546;2023-08-30T10:28:41;6.43;;;3.78;;
20022;SDS011;10172;42.054;24.546;2023-08-30T10:31:07;7.38;;;3.35;;
20022;SDS011;10172;42.054;24.546;2023-08-30T10:33:44;7.78;;;4.07;;
20022;SDS011;10172;42.054;24.546;2023-08-30T10:36:20;7.38;;;3.63;;
20022;SDS011;10172;42.054;24.546;2023-08-30T10:38:53;6.43;;;3.53;;
20022;SDS011;10172;42.054;24.546;2023-08-30T10:41:23;6.78;;;3.85;;
20022;SDS011;10172;42.054;24.546;2023-08-30T10:43:55;5.07;;;3.30;;
20022;SDS011;10172;42.054;24.546;2023-08-30T10:46:30;5.95;;;4.05;;
20022;SDS011;10172;42.054;24.546;2023-08-30T10:49:07;4.93;;;3.80;;
20022;SDS011;10172;42.054;24.546;2023-08-30T10:51:43;7.88;;;3.85;;
20022;SDS011;10172;42.054;24.546;2023-08-30T10:54:18;6.68;;;3.92;;
20022;SDS011;10172;42.054;24.546;2023-08-30T10:56:56;8.57;;;4.32;;
20022;SDS011;10172;42.054;24.546;2023-08-30T10:59:25;5.90;;;3.58;;
20022;SDS011;10172;42.054;24.546;2023-08-30T11:01:51;5.90;;;3.63;;
20022;SDS011;10172;42.054;24.546;2023-08-30T11:04:18;5.72;;;3.78;;
20022;SDS011;10172;42.054;24.546;2023-08-30T11:06:45;8.70;;;3.95;;
20022;SDS011;10172;42.054;24.546;2023-08-30T11:09:12;7.45;;;4.13;;
20022;SDS011;10172;42.054;24.546;2023-08-30T11:11:39;7.30;;;4.10;;
20022;SDS011;10172;42.054;24.546;2023-08-30T11:14:08;6.53;;;3.85;;
20022;SDS011;10172;42.054;24.546;2023-08-30T11:16:37;4.82;;;3.50;;
20022;SDS011;10172;42.054;24.546;2023-08-30T11:19:04;6.15;;;3.90;;
20022;SDS011;10172;42.054;24.546;2023-08-30T11:21:30;8.82;;;4.78;;
20022;SDS011;10172;42.054;24.546;2023-08-30T11:23:57;7.53;;;4.38;;
20022;SDS011;10172;42.054;24.546;2023-08-30T11:26:22;7.07;;;4.20;;
20022;SDS011;10172;42.054;24.546;2023-08-30T11:28:48;7.43;;;4.10;;
20022;SDS011;10172;42.054;24.546;2023-08-30T11:33:53;8.18;;;4.47;;
20022;SDS011;10172;42.054;24.546;2023-08-30T11:36:30;6.28;;;3.90;;
20022;SDS011;10172;42.054;24.546;2023-08-30T11:38:57;7.43;;;4.32;;
20022;SDS011;10172;42.054;24.546;2023-08-30T11:41:26;8.88;;;4.25;;
20022;SDS011;10172;42.054;24.546;2023-08-30T11:43:52;6.88;;;4.50;;
20022;SDS011;10172;42.054;24.546;2023-08-30T11:46:18;5.88;;;4.03;;
20022;SDS011;10172;42.054;24.546;2023-08-30T11:48:44;6.97;;;4.00;;
20022;SDS011;10172;42.054;24.546;2023-08-30T11:51:11;6.20;;;4.05;;
20022;SDS011;10172;42.054;24.546;2023-08-30T11:53:37;5.75;;;3.90;;
20022;SDS011;10172;42.054;24.546;2023-08-30T11:56:04;6.30;;;4.20;;
20022;SDS011;10172;42.054;24.546;2023-08-30T11:58:34;8.75;;;4.35;;
20022;SDS011;10172;42.054;24.546;2023-08-30T12:01:04;8.88;;;4.32;;
20022;SDS011;10172;42.054;24.546;2023-08-30T12:03:30;7.88;;;4.22;;
20022;SDS011;10172;42.054;24.546;2023-08-30T12:05:57;7.97;;;4.53;;
20022;SDS011;10172;42.054;24.546;2023-08-30T12:08:25;7.88;;;4.25;;
20022;SDS011;10172;42.054;24.546;2023-08-30T12:10:52;7.22;;;4.78;;
20022;SDS011;10172;42.054;24.546;2023-08-30T12:15:50;6.75;;;4.10;;
20022;SDS011;10172;42.054;24.546;2023-08-30T12:18:16;7.90;;;4.70;;
20022;SDS011;10172;42.054;24.546;2023-08-30T12:20:51;6.43;;;4.20;;
20022;SDS011;10172;42.054;24.546;2023-08-30T12:23:21;7.45;;;4.63;;
20022;SDS011;10172;42.054;24.546;2023-08-30T12:26:00;8.70;;;4.15;;
20022;SDS011;10172;42.054;24.546;2023-08-30T12:28:31;6.07;;;4.18;;
20022;SDS011;10172;42.054;24.546;2023-08-30T12:30:58;6.03;;;4.18;;
20022;SDS011;10172;42.054;24.546;2023-08-30T12:33:24;6.80;;;4.68;;
20022;SDS011;10172;42.054;24.546;2023-08-30T12:35:53;8.05;;;4.13;;
20022;SDS011;10172;42.054;24.546;2023-08-30T12:38:20;6.85;;;4.32;;
20022;SDS011;10172;42.054;24.546;2023-08-30T12:40:47;6.70;;;4.25;;
20022;SDS011;10172;42.054;24.546;2023-08-30T12:43:14;6.25;;;4.13;;
20022;SDS011;10172;42.054;24.546;2023-08-30T12:45:40;7.93;;;4.43;;
20022;SDS011;10172;42.054;24.546;2023-08-30T12:48:07;7.78;;;4.68;;
20022;SDS011;10172;42.054;24.546;2023-08-30T12:50:34;5.07;;;4.00;;
20022;SDS011;10172;42.054;24.546;2023-08-30T12:53:01;5.78;;;3.95;;
20022;SDS011;10172;42.054;24.546;2023-08-30T12:55:29;7.40;;;4.35;;
20022;SDS011;10172;42.054;24.546;2023-08-30T12:57:55;7.30;;;3.88;;
20022;SDS011;10172;42.054;24.546;2023-08-30T13:00:21;7.13;;;4.68;;
20022;SDS011;10172;42.054;24.546;2023-08-30T13:02:46;7.10;;;4.70;;
20022;SDS011;10172;42.054;24.546;2023-08-30T13:05:12;7.28;;;4.78;;
20022;SDS011;10172;42.054;24.546;2023-08-30T13:07:37;8.48;;;5.00;;
20022;SDS011;10172;42.054;24.546;2023-08-30T13:10:04;6.28;;;4.53;;
20022;SDS011;10172;42.054;24.546;2023-08-30T13:12:30;10.52;;;5.18;;
20022;SDS011;10172;42.054;24.546;2023-08-30T13:14:56;6.10;;;4.45;;
20022;SDS011;10172;42.054;24.546;2023-08-30T13:17:21;7.27;;;4.93;;
20022;SDS011;10172;42.054;24.546;2023-08-30T13:19:47;8.00;;;4.88;;
20022;SDS011;10172;42.054;24.546;2023-08-30T13:22:12;7.78;;;5.22;;
20022;SDS011;10172;42.054;24.546;2023-08-30T13:24:38;7.65;;;4.80;;
20022;SDS011;10172;42.054;24.546;2023-08-30T13:27:03;7.20;;;5.18;;
20022;SDS011;10172;42.054;24.546;2023-08-30T13:29:29;8.43;;;4.93;;
20022;SDS011;10172;42.054;24.546;2023-08-30T13:31:55;7.07;;;4.68;;
20022;SDS011;10172;42.054;24.546;2023-08-30T13:34:20;7.45;;;5.00;;
20022;SDS011;10172;42.054;24.546;2023-08-30T13:36:46;16.88;;;4.97;;
20022;SDS011;10172;42.054;24.546;2023-08-30T13:39:11;8.40;;;5.47;;
20022;SDS011;10172;42.054;24.546;2023-08-30T13:41:37;5.80;;;4.70;;
20022;SDS011;10172;42.054;24.546;2023-08-30T13:44:02;9.63;;;5.80;;
20022;SDS011;10172;42.054;24.546;2023-08-30T13:46:31;7.78;;;4.75;;
20022;SDS011;10172;42.054;24.546;2023-08-30T13:48:56;6.10;;;4.88;;
20022;SDS011;10172;42.054;24.546;2023-08-30T13:51:22;7.75;;;4.60;;
20022;SDS011;10172;42.054;24.546;2023-08-30T13:53:51;8.32;;;5.28;;
20022;SDS011;10172;42.054;24.546;2023-08-30T13:56:18;6.82;;;5.05;;
20022;SDS011;10172;42.054;24.546;2023-08-30T13:58:45;8.07;;;5.35;;
20022;SDS011;10172;42.054;24.546;2023-08-30T14:01:10;7.32;;;5.50;;
20022;SDS011;10172;42.054;24.546;2023-08-30T14:03:37;7.10;;;4.75;;
20022;SDS011;10172;42.054;24.546;2023-08-30T14:06:02;8.57;;;5.47;;
20022;SDS011;10172;42.054;24.546;2023-08-30T14:08:28;7.50;;;5.10;;
20022;SDS011;10172;42.054;24.546;2023-08-30T14:10:57;10.98;;;5.30;;
20022;SDS011;10172;42.054;24.546;2023-08-30T14:13:22;8.18;;;5.03;;
20022;SDS011;10172;42.054;24.546;2023-08-30T14:15:48;6.68;;;4.82;;
20022;SDS011;10172;42.054;24.546;2023-08-30T14:18:14;8.00;;;5.38;;
20022;SDS011;10172;42.054;24.546;2023-08-30T14:20:43;8.32;;;5.30;;
20022;SDS011;10172;42.054;24.546;2023-08-30T14:23:09;8.27;;;4.97;;
20022;SDS011;10172;42.054;24.546;2023-08-30T14:25:35;8.50;;;4.93;;
20022;SDS011;10172;42.054;24.546;2023-08-30T14:28:01;9.23;;;5.18;;
20022;SDS011;10172;42.054;24.546;2023-08-30T14:30:28;6.05;;;4.65;;
20022;SDS011;10172;42.054;24.546;2023-08-30T14:32:53;7.75;;;5.40;;
20022;SDS011;10172;42.054;24.546;2023-08-30T14:35:19;6.25;;;4.65;;
20022;SDS011;10172;42.054;24.546;2023-08-30T14:37:49;8.50;;;4.97;;
20022;SDS011;10172;42.054;24.546;2023-08-30T14:40:15;8.85;;;4.50;;
20022;SDS011;10172;42.054;24.546;2023-08-30T14:42:41;9.68;;;5.00;;
20022;SDS011;10172;42.054;24.546;2023-08-30T14:45:06;7.50;;;4.40;;
20022;SDS011;10172;42.054;24.546;2023-08-30T14:47:32;9.52;;;5.03;;